sensor_id;sensor_type;location;lat;lon;timestamp;P1;durP1;ratioP1;P2;durP2;ratioP2
17384;SDS011;8810;48.680;8.894;2022-12-16T00:00:05;42.13;;;19.67;;
17384;SDS011;8810;48.680;8.894;2022-12-16T00:02:33;46.33;;;19.47;;
17384;SDS011;8810;48.680;8.894;2022-12-16T00:05:02;41.70;;;18.60;;
17384;SDS011;8810;48.680;8.894;2022-12-16T00:07:29;42.13;;;18.63;;
17384;SDS011;8810;48.680;8.894;2022-12-16T00:09:56;41.27;;;18.27;;
17384;SDS011;8810;48.680;8.894;2022-12-16T00:12:24;45.37;;;18.67;;
17384;SDS011;8810;48.680;8.894;2022-12-16T00:14:51;40.60;;;18.43;;
17384;SDS011;8810;48.680;8.894;2022-12-16T00:17:19;41.80;;;18.13;;
17384;SDS011;8810;48.680;8.894;2022-12-16T00:19:45;40.40;;;19.10;;
17384;SDS011;8810;48.680;8.894;2022-12-16T00:22:14;42.87;;;18.27;;
17384;SDS011;8810;48.680;8.894;2022-12-16T00:24:41;41.17;;;17.23;;
17384;SDS011;8810;48.680;8.894;2022-12-16T00:27:07;38.63;;;17.27;;
17384;SDS011;8810;48.680;8.894;2022-12-16T00:29:34;38.57;;;16.37;;
17384;SDS011;8810;48.680;8.894;2022-12-16T00:32:01;39.33;;;18.23;;
17384;SDS011;8810;48.680;8.894;2022-12-16T00:34:28;39.53;;;16.90;;
17384;SDS011;8810;48.680;8.894;2022-12-16T00:36:55;39.93;;;17.87;;
17384;SDS011;8810;48.680;8.894;2022-12-16T00:39:23;41.00;;;18.17;;
17384;SDS011;8810;48.680;8.894;2022-12-16T00:41:50;42.80;;;18.30;;
17384;SDS011;8810;48.680;8.894;2022-12-16T00:44:17;40.20;;;17.77;;
17384;SDS011;8810;48.680;8.894;2022-12-16T00:46:43;48.17;;;19.73;;
17384;SDS011;8810;48.680;8.894;2022-12-16T00:49:10;42.67;;;19.03;;
17384;SDS011;8810;48.680;8.894;2022-12-16T00:51:37;37.73;;;18.37;;
17384;SDS011;8810;48.680;8.894;2022-12-16T00:54:04;40.27;;;17.63;;
17384;SDS011;8810;48.680;8.894;2022-12-16T00:56:32;41.37;;;17.93;;
17384;SDS011;8810;48.680;8.894;2022-12-16T00:59:00;42.33;;;18.27;;
17384;SDS011;8810;48.680;8.894;2022-12-16T01:01:27;38.33;;;17.53;;
17384;SDS011;8810;48.680;8.894;2022-12-16T01:03:54;40.97;;;17.90;;
17384;SDS011;8810;48.680;8.894;2022-12-16T01:06:22;39.43;;;17.40;;
17384;SDS011;8810;48.680;8.894;2022-12-16T01:08:49;40.20;;;17.07;;
17384;SDS011;8810;48.680;8.894;2022-12-16T01:11:16;40.40;;;18.03;;
17384;SDS011;8810;48.680;8.894;2022-12-16T01:13:48;41.53;;;18.27;;
17384;SDS011;8810;48.680;8.894;2022-12-16T01:16:16;45.27;;;18.63;;
17384;SDS011;8810;48.680;8.894;2022-12-16T01:18:43;40.03;;;17.40;;
17384;SDS011;8810;48.680;8.894;2022-12-16T01:21:10;45.13;;;17.73;;
17384;SDS011;8810;48.680;8.894;2022-12-16T01:23:39;40.53;;;18.37;;
17384;SDS011;8810;48.680;8.894;2022-12-16T01:26:06;46.07;;;19.33;;
17384;SDS011;8810;48.680;8.894;2022-12-16T01:28:33;43.10;;;18.70;;
17384;SDS011;8810;48.680;8.894;2022-12-16T01:31:01;40.03;;;17.60;;
17384;SDS011;8810;48.680;8.894;2022-12-16T01:33:28;41.37;;;19.40;;
17384;SDS011;8810;48.680;8.894;2022-12-16T01:35:59;42.20;;;17.70;;
17384;SDS011;8810;48.680;8.894;2022-12-16T01:38:27;43.97;;;17.57;;
17384;SDS011;8810;48.680;8.894;2022-12-16T01:40:54;34.50;;;17.27;;
17384;SDS011;8810;48.680;8.894;2022-12-16T01:43:23;42.13;;;18.03;;
17384;SDS011;8810;48.680;8.894;2022-12-16T01:45:51;39.20;;;16.57;;
17384;SDS011;8810;48.680;8.894;2022-12-16T01:48:32;41.03;;;17.70;;
17384;SDS011;8810;48.680;8.894;2022-12-16T01:51:08;37.20;;;16.40;;
17384;SDS011;8810;48.680;8.894;2022-12-16T01:53:38;41.40;;;17.00;;
17384;SDS011;8810;48.680;8.894;2022-12-16T01:56:07;39.77;;;17.63;;
17384;SDS011;8810;48.680;8.894;2022-12-16T01:58:37;43.40;;;17.17;;
17384;SDS011;8810;48.680;8.894;2022-12-16T02:01:06;36.13;;;16.63;;
17384;SDS011;8810;48.680;8.894;2022-12-16T02:03:34;36.43;;;15.80;;
17384;SDS011;8810;48.680;8.894;2022-12-16T02:06:02;42.87;;;18.07;;
17384;SDS011;8810;48.680;8.894;2022-12-16T02:08:30;46.97;;;18.93;;
17384;SDS011;8810;48.680;8.894;2022-12-16T02:11:05;38.43;;;15.80;;
17384;SDS011;8810;48.680;8.894;2022-12-16T02:13:45;43.90;;;17.43;;
17384;SDS011;8810;48.680;8.894;2022-12-16T02:16:27;38.03;;;17.03;;
17384;SDS011;8810;48.680;8.894;2022-12-16T02:19:01;40.20;;;17.77;;
17384;SDS011;8810;48.680;8.894;2022-12-16T02:21:44;39.13;;;17.50;;
17384;SDS011;8810;48.680;8.894;2022-12-16T02:24:32;42.23;;;18.03;;
17384;SDS011;8810;48.680;8.894;2022-12-16T02:30:24;37.03;;;17.00;;
17384;SDS011;8810;48.680;8.894;2022-12-16T02:33:06;44.60;;;18.13;;
17384;SDS011;8810;48.680;8.894;2022-12-16T02:35:40;35.00;;;16.10;;
17384;SDS011;8810;48.680;8.894;2022-12-16T02:38:20;45.47;;;18.10;;
17384;SDS011;8810;48.680;8.894;2022-12-16T02:40:53;44.90;;;18.47;;
17384;SDS011;8810;48.680;8.894;2022-12-16T02:43:30;40.57;;;17.33;;
17384;SDS011;8810;48.680;8.894;2022-12-16T02:46:08;36.40;;;16.10;;
17384;SDS011;8810;48.680;8.894;2022-12-16T02:48:35;38.17;;;16.50;;
17384;SDS011;8810;48.680;8.894;2022-12-16T02:51:02;41.40;;;17.53;;
17384;SDS011;8810;48.680;8.894;2022-12-16T02:53:29;38.00;;;17.13;;
17384;SDS011;8810;48.680;8.894;2022-12-16T02:55:59;34.00;;;16.10;;
17384;SDS011;8810;48.680;8.894;2022-12-16T02:58:31;38.27;;;16.53;;
17384;SDS011;8810;48.680;8.894;2022-12-16T03:01:08;40.47;;;15.90;;
17384;SDS011;8810;48.680;8.894;2022-12-16T03:03:43;40.00;;;17.03;;
17384;SDS011;8810;48.680;8.894;2022-12-16T03:06:13;41.47;;;16.87;;
17384;SDS011;8810;48.680;8.894;2022-12-16T03:08:43;39.77;;;18.00;;
17384;SDS011;8810;48.680;8.894;2022-12-16T03:11:15;42.23;;;17.57;;
17384;SDS011;8810;48.680;8.894;2022-12-16T03:13:43;34.07;;;15.73;;
17384;SDS011;8810;48.680;8.894;2022-12-16T03:16:17;38.40;;;15.63;;
17384;SDS011;8810;48.680;8.894;2022-12-16T03:18:48;37.50;;;14.57;;
17384;SDS011;8810;48.680;8.894;2022-12-16T03:21:19;33.60;;;15.17;;
17384;SDS011;8810;48.680;8.894;2022-12-16T03:23:49;37.10;;;15.10;;
17384;SDS011;8810;48.680;8.894;2022-12-16T03:26:20;33.00;;;15.17;;
17384;SDS011;8810;48.680;8.894;2022-12-16T03:28:52;35.03;;;15.70;;
17384;SDS011;8810;48.680;8.894;2022-12-16T03:31:29;36.47;;;17.03;;
17384;SDS011;8810;48.680;8.894;2022-12-16T03:34:03;38.53;;;16.47;;
17384;SDS011;8810;48.680;8.894;2022-12-16T03:36:37;34.20;;;15.47;;
17384;SDS011;8810;48.680;8.894;2022-12-16T03:39:06;34.47;;;15.67;;
17384;SDS011;8810;48.680;8.894;2022-12-16T03:41:34;36.97;;;15.27;;
17384;SDS011;8810;48.680;8.894;2022-12-16T03:44:02;36.57;;;16.33;;
17384;SDS011;8810;48.680;8.894;2022-12-16T03:46:31;36.73;;;15.43;;
17384;SDS011;8810;48.680;8.894;2022-12-16T03:48:58;33.70;;;14.33;;
17384;SDS011;8810;48.680;8.894;2022-12-16T03:51:25;32.50;;;14.80;;
17384;SDS011;8810;48.680;8.894;2022-12-16T03:53:52;35.73;;;15.57;;
17384;SDS011;8810;48.680;8.894;2022-12-16T03:56:18;35.73;;;16.00;;
17384;SDS011;8810;48.680;8.894;2022-12-16T03:58:45;34.23;;;14.33;;
17384;SDS011;8810;48.680;8.894;2022-12-16T04:01:12;34.93;;;14.23;;
17384;SDS011;8810;48.680;8.894;2022-12-16T04:03:41;32.80;;;14.93;;
17384;SDS011;8810;48.680;8.894;2022-12-16T04:06:07;36.33;;;14.97;;
17384;SDS011;8810;48.680;8.894;2022-12-16T04:08:34;34.30;;;15.30;;
17384;SDS011;8810;48.680;8.894;2022-12-16T04:11:01;33.30;;;15.33;;
17384;SDS011;8810;48.680;8.894;2022-12-16T04:13:46;33.70;;;15.70;;
17384;SDS011;8810;48.680;8.894;2022-12-16T04:16:30;32.67;;;13.73;;
17384;SDS011;8810;48.680;8.894;2022-12-16T04:19:19;33.03;;;14.43;;
17384;SDS011;8810;48.680;8.894;2022-12-16T04:22:07;29.20;;;13.77;;
17384;SDS011;8810;48.680;8.894;2022-12-16T04:24:55;29.80;;;13.60;;
17384;SDS011;8810;48.680;8.894;2022-12-16T04:27:24;33.20;;;14.83;;
17384;SDS011;8810;48.680;8.894;2022-12-16T04:29:52;32.43;;;14.00;;
17384;SDS011;8810;48.680;8.894;2022-12-16T04:32:36;32.23;;;14.00;;
17384;SDS011;8810;48.680;8.894;2022-12-16T04:35:22;30.70;;;14.13;;
17384;SDS011;8810;48.680;8.894;2022-12-16T04:38:06;32.43;;;13.63;;
17384;SDS011;8810;48.680;8.894;2022-12-16T04:40:50;32.07;;;15.27;;
17384;SDS011;8810;48.680;8.894;2022-12-16T04:43:34;31.97;;;13.83;;
17384;SDS011;8810;48.680;8.894;2022-12-16T04:46:19;32.83;;;14.30;;
17384;SDS011;8810;48.680;8.894;2022-12-16T04:49:03;28.60;;;12.47;;
17384;SDS011;8810;48.680;8.894;2022-12-16T04:51:48;29.33;;;13.17;;
17384;SDS011;8810;48.680;8.894;2022-12-16T04:54:32;30.07;;;13.23;;
17384;SDS011;8810;48.680;8.894;2022-12-16T04:57:16;26.43;;;12.60;;
17384;SDS011;8810;48.680;8.894;2022-12-16T05:00:00;32.83;;;13.40;;
17384;SDS011;8810;48.680;8.894;2022-12-16T05:02:46;26.67;;;12.67;;
17384;SDS011;8810;48.680;8.894;2022-12-16T05:05:31;28.70;;;12.30;;
17384;SDS011;8810;48.680;8.894;2022-12-16T05:08:17;33.93;;;14.20;;
17384;SDS011;8810;48.680;8.894;2022-12-16T05:11:01;37.17;;;14.20;;
17384;SDS011;8810;48.680;8.894;2022-12-16T05:13:46;30.77;;;13.47;;
17384;SDS011;8810;48.680;8.894;2022-12-16T05:16:31;28.07;;;12.97;;
17384;SDS011;8810;48.680;8.894;2022-12-16T05:19:15;28.53;;;12.47;;
17384;SDS011;8810;48.680;8.894;2022-12-16T05:21:59;25.20;;;11.03;;
17384;SDS011;8810;48.680;8.894;2022-12-16T05:24:44;28.83;;;12.47;;
17384;SDS011;8810;48.680;8.894;2022-12-16T05:27:29;27.97;;;13.17;;
17384;SDS011;8810;48.680;8.894;2022-12-16T05:30:14;28.27;;;12.30;;
17384;SDS011;8810;48.680;8.894;2022-12-16T05:32:58;27.57;;;12.77;;
17384;SDS011;8810;48.680;8.894;2022-12-16T05:35:43;25.67;;;10.87;;
17384;SDS011;8810;48.680;8.894;2022-12-16T05:38:27;27.03;;;11.37;;
17384;SDS011;8810;48.680;8.894;2022-12-16T05:41:12;28.27;;;11.93;;
17384;SDS011;8810;48.680;8.894;2022-12-16T05:43:57;23.83;;;11.07;;
17384;SDS011;8810;48.680;8.894;2022-12-16T05:46:41;24.50;;;10.70;;
17384;SDS011;8810;48.680;8.894;2022-12-16T05:49:25;23.40;;;10.40;;
17384;SDS011;8810;48.680;8.894;2022-12-16T05:52:10;26.97;;;10.07;;
17384;SDS011;8810;48.680;8.894;2022-12-16T05:54:54;24.20;;;10.03;;
17384;SDS011;8810;48.680;8.894;2022-12-16T05:57:39;24.33;;;10.57;;
17384;SDS011;8810;48.680;8.894;2022-12-16T06:00:23;22.23;;;9.77;;
17384;SDS011;8810;48.680;8.894;2022-12-16T06:03:08;23.97;;;10.53;;
17384;SDS011;8810;48.680;8.894;2022-12-16T06:05:52;22.53;;;10.90;;
17384;SDS011;8810;48.680;8.894;2022-12-16T06:08:36;23.27;;;10.10;;
17384;SDS011;8810;48.680;8.894;2022-12-16T06:11:17;24.83;;;11.23;;
17384;SDS011;8810;48.680;8.894;2022-12-16T06:14:02;25.20;;;10.30;;
17384;SDS011;8810;48.680;8.894;2022-12-16T06:16:47;20.23;;;10.20;;
17384;SDS011;8810;48.680;8.894;2022-12-16T06:19:31;26.93;;;11.37;;
17384;SDS011;8810;48.680;8.894;2022-12-16T06:22:15;21.50;;;10.00;;
17384;SDS011;8810;48.680;8.894;2022-12-16T06:24:59;22.77;;;10.70;;
17384;SDS011;8810;48.680;8.894;2022-12-16T06:27:47;23.03;;;10.17;;
17384;SDS011;8810;48.680;8.894;2022-12-16T06:30:35;24.53;;;10.10;;
17384;SDS011;8810;48.680;8.894;2022-12-16T06:33:21;22.73;;;10.07;;
17384;SDS011;8810;48.680;8.894;2022-12-16T06:36:06;23.20;;;10.67;;
17384;SDS011;8810;48.680;8.894;2022-12-16T06:38:53;24.17;;;10.43;;
17384;SDS011;8810;48.680;8.894;2022-12-16T06:41:37;26.33;;;10.03;;
17384;SDS011;8810;48.680;8.894;2022-12-16T06:44:21;21.13;;;9.67;;
17384;SDS011;8810;48.680;8.894;2022-12-16T06:47:06;21.97;;;10.10;;
17384;SDS011;8810;48.680;8.894;2022-12-16T06:49:51;21.80;;;10.13;;
17384;SDS011;8810;48.680;8.894;2022-12-16T06:52:35;19.93;;;9.33;;
17384;SDS011;8810;48.680;8.894;2022-12-16T06:55:19;23.83;;;10.17;;
17384;SDS011;8810;48.680;8.894;2022-12-16T06:58:04;27.57;;;10.40;;
17384;SDS011;8810;48.680;8.894;2022-12-16T07:00:48;22.73;;;9.93;;
17384;SDS011;8810;48.680;8.894;2022-12-16T07:03:33;20.43;;;9.13;;
17384;SDS011;8810;48.680;8.894;2022-12-16T07:06:18;18.93;;;8.90;;
17384;SDS011;8810;48.680;8.894;2022-12-16T07:09:02;21.37;;;8.57;;
17384;SDS011;8810;48.680;8.894;2022-12-16T07:11:46;19.53;;;9.07;;
17384;SDS011;8810;48.680;8.894;2022-12-16T07:14:30;19.70;;;8.60;;
17384;SDS011;8810;48.680;8.894;2022-12-16T07:17:14;20.40;;;8.73;;
17384;SDS011;8810;48.680;8.894;2022-12-16T07:20:00;18.67;;;8.97;;
17384;SDS011;8810;48.680;8.894;2022-12-16T07:22:44;19.60;;;8.67;;
17384;SDS011;8810;48.680;8.894;2022-12-16T07:25:29;18.23;;;7.70;;
17384;SDS011;8810;48.680;8.894;2022-12-16T07:28:13;14.13;;;7.63;;
17384;SDS011;8810;48.680;8.894;2022-12-16T07:30:58;18.37;;;8.17;;
17384;SDS011;8810;48.680;8.894;2022-12-16T07:33:42;16.10;;;7.90;;
17384;SDS011;8810;48.680;8.894;2022-12-16T07:36:28;16.77;;;7.83;;
17384;SDS011;8810;48.680;8.894;2022-12-16T07:39:12;16.33;;;7.93;;
17384;SDS011;8810;48.680;8.894;2022-12-16T07:41:56;16.53;;;7.70;;
17384;SDS011;8810;48.680;8.894;2022-12-16T07:44:40;19.53;;;8.50;;
17384;SDS011;8810;48.680;8.894;2022-12-16T07:47:24;19.87;;;8.30;;
17384;SDS011;8810;48.680;8.894;2022-12-16T07:50:20;18.47;;;7.90;;
17384;SDS011;8810;48.680;8.894;2022-12-16T07:53:06;15.00;;;7.40;;
17384;SDS011;8810;48.680;8.894;2022-12-16T07:55:51;18.10;;;8.13;;
17384;SDS011;8810;48.680;8.894;2022-12-16T07:58:35;18.37;;;8.13;;
17384;SDS011;8810;48.680;8.894;2022-12-16T08:01:19;18.67;;;7.97;;
17384;SDS011;8810;48.680;8.894;2022-12-16T08:04:03;17.50;;;7.87;;
17384;SDS011;8810;48.680;8.894;2022-12-16T08:06:48;17.33;;;7.80;;
17384;SDS011;8810;48.680;8.894;2022-12-16T08:09:33;19.77;;;8.57;;
17384;SDS011;8810;48.680;8.894;2022-12-16T08:12:17;22.43;;;8.83;;
17384;SDS011;8810;48.680;8.894;2022-12-16T08:15:02;19.13;;;8.20;;
17384;SDS011;8810;48.680;8.894;2022-12-16T08:17:47;21.00;;;8.73;;
17384;SDS011;8810;48.680;8.894;2022-12-16T08:20:32;15.93;;;8.20;;
17384;SDS011;8810;48.680;8.894;2022-12-16T08:23:16;18.30;;;8.07;;
17384;SDS011;8810;48.680;8.894;2022-12-16T08:26:02;18.77;;;7.50;;
17384;SDS011;8810;48.680;8.894;2022-12-16T08:28:47;17.53;;;8.03;;
17384;SDS011;8810;48.680;8.894;2022-12-16T08:31:31;17.88;;;8.77;;
17384;SDS011;8810;48.680;8.894;2022-12-16T08:34:15;17.43;;;7.63;;
17384;SDS011;8810;48.680;8.894;2022-12-16T08:36:59;14.97;;;6.93;;
17384;SDS011;8810;48.680;8.894;2022-12-16T08:39:43;18.07;;;7.10;;
17384;SDS011;8810;48.680;8.894;2022-12-16T08:42:29;17.60;;;8.03;;
17384;SDS011;8810;48.680;8.894;2022-12-16T08:45:13;16.73;;;7.47;;
17384;SDS011;8810;48.680;8.894;2022-12-16T08:47:58;15.63;;;7.53;;
17384;SDS011;8810;48.680;8.894;2022-12-16T08:50:42;16.40;;;7.70;;
17384;SDS011;8810;48.680;8.894;2022-12-16T08:53:27;18.83;;;7.80;;
17384;SDS011;8810;48.680;8.894;2022-12-16T08:56:11;17.43;;;7.23;;
17384;SDS011;8810;48.680;8.894;2022-12-16T08:58:57;15.93;;;7.43;;
17384;SDS011;8810;48.680;8.894;2022-12-16T09:01:41;15.90;;;7.87;;
17384;SDS011;8810;48.680;8.894;2022-12-16T09:04:25;14.77;;;6.83;;
17384;SDS011;8810;48.680;8.894;2022-12-16T09:07:10;14.27;;;7.23;;
17384;SDS011;8810;48.680;8.894;2022-12-16T09:09:54;13.93;;;6.73;;
17384;SDS011;8810;48.680;8.894;2022-12-16T09:12:49;11.90;;;6.53;;
17384;SDS011;8810;48.680;8.894;2022-12-16T09:15:35;14.17;;;6.80;;
17384;SDS011;8810;48.680;8.894;2022-12-16T09:18:20;17.20;;;7.10;;
17384;SDS011;8810;48.680;8.894;2022-12-16T09:21:04;14.27;;;6.60;;
17384;SDS011;8810;48.680;8.894;2022-12-16T09:24:00;12.50;;;6.20;;
17384;SDS011;8810;48.680;8.894;2022-12-16T09:26:44;13.07;;;6.77;;
17384;SDS011;8810;48.680;8.894;2022-12-16T09:29:29;13.27;;;6.70;;
17384;SDS011;8810;48.680;8.894;2022-12-16T09:32:14;15.70;;;6.50;;
17384;SDS011;8810;48.680;8.894;2022-12-16T09:34:59;12.30;;;5.90;;
17384;SDS011;8810;48.680;8.894;2022-12-16T09:37:44;13.73;;;6.57;;
17384;SDS011;8810;48.680;8.894;2022-12-16T09:40:29;12.83;;;5.80;;
17384;SDS011;8810;48.680;8.894;2022-12-16T09:43:24;11.40;;;5.90;;
17384;SDS011;8810;48.680;8.894;2022-12-16T09:46:19;21.27;;;7.47;;
17384;SDS011;8810;48.680;8.894;2022-12-16T09:49:15;17.87;;;6.93;;
17384;SDS011;8810;48.680;8.894;2022-12-16T09:52:11;12.97;;;6.10;;
17384;SDS011;8810;48.680;8.894;2022-12-16T09:54:58;16.60;;;7.90;;
17384;SDS011;8810;48.680;8.894;2022-12-16T09:57:44;17.40;;;7.93;;
17384;SDS011;8810;48.680;8.894;2022-12-16T10:00:30;17.83;;;7.57;;
17384;SDS011;8810;48.680;8.894;2022-12-16T10:03:25;13.83;;;7.07;;
17384;SDS011;8810;48.680;8.894;2022-12-16T10:06:20;15.87;;;7.57;;
17384;SDS011;8810;48.680;8.894;2022-12-16T10:09:19;21.43;;;11.57;;
17384;SDS011;8810;48.680;8.894;2022-12-16T10:12:11;18.57;;;8.53;;
17384;SDS011;8810;48.680;8.894;2022-12-16T10:15:07;44.03;;;11.57;;
17384;SDS011;8810;48.680;8.894;2022-12-16T10:17:59;21.50;;;7.43;;
17384;SDS011;8810;48.680;8.894;2022-12-16T10:20:48;14.13;;;8.23;;
17384;SDS011;8810;48.680;8.894;2022-12-16T10:23:37;15.83;;;7.77;;
17384;SDS011;8810;48.680;8.894;2022-12-16T10:26:30;19.97;;;8.70;;
17384;SDS011;8810;48.680;8.894;2022-12-16T10:29:21;20.17;;;7.47;;
17384;SDS011;8810;48.680;8.894;2022-12-16T10:32:11;17.43;;;7.27;;
17384;SDS011;8810;48.680;8.894;2022-12-16T10:35:01;15.77;;;7.27;;
17384;SDS011;8810;48.680;8.894;2022-12-16T10:37:59;23.53;;;9.03;;
17384;SDS011;8810;48.680;8.894;2022-12-16T10:40:46;19.00;;;8.43;;
17384;SDS011;8810;48.680;8.894;2022-12-16T10:43:33;22.63;;;7.97;;
17384;SDS011;8810;48.680;8.894;2022-12-16T10:46:23;38.23;;;11.43;;
17384;SDS011;8810;48.680;8.894;2022-12-16T10:49:12;72.47;;;19.20;;
17384;SDS011;8810;48.680;8.894;2022-12-16T10:51:58;20.60;;;8.70;;
17384;SDS011;8810;48.680;8.894;2022-12-16T10:54:43;37.53;;;11.50;;
17384;SDS011;8810;48.680;8.894;2022-12-16T10:57:36;34.67;;;10.20;;
17384;SDS011;8810;48.680;8.894;2022-12-16T11:00:38;64.63;;;16.93;;
17384;SDS011;8810;48.680;8.894;2022-12-16T11:03:26;20.40;;;7.07;;
17384;SDS011;8810;48.680;8.894;2022-12-16T11:06:12;48.23;;;13.93;;
17384;SDS011;8810;48.680;8.894;2022-12-16T11:09:12;21.60;;;8.63;;
17384;SDS011;8810;48.680;8.894;2022-12-16T11:12:12;17.63;;;7.93;;
17384;SDS011;8810;48.680;8.894;2022-12-16T11:15:11;31.10;;;12.23;;
17384;SDS011;8810;48.680;8.894;2022-12-16T11:18:06;18.63;;;7.40;;
17384;SDS011;8810;48.680;8.894;2022-12-16T11:21:02;17.47;;;7.40;;
17384;SDS011;8810;48.680;8.894;2022-12-16T11:23:59;15.60;;;6.57;;
17384;SDS011;8810;48.680;8.894;2022-12-16T11:26:54;20.10;;;8.30;;
17384;SDS011;8810;48.680;8.894;2022-12-16T11:29:50;15.77;;;6.53;;
17384;SDS011;8810;48.680;8.894;2022-12-16T11:32:41;14.20;;;5.97;;
17384;SDS011;8810;48.680;8.894;2022-12-16T11:38:21;17.33;;;7.37;;
17384;SDS011;8810;48.680;8.894;2022-12-16T11:41:20;13.53;;;6.77;;
17384;SDS011;8810;48.680;8.894;2022-12-16T11:44:09;15.33;;;6.17;;
17384;SDS011;8810;48.680;8.894;2022-12-16T11:47:01;15.73;;;7.43;;
17384;SDS011;8810;48.680;8.894;2022-12-16T11:49:48;12.90;;;6.20;;
17384;SDS011;8810;48.680;8.894;2022-12-16T11:52:33;15.43;;;6.07;;
17384;SDS011;8810;48.680;8.894;2022-12-16T11:55:18;16.83;;;6.23;;
17384;SDS011;8810;48.680;8.894;2022-12-16T11:58:10;12.90;;;6.60;;
17384;SDS011;8810;48.680;8.894;2022-12-16T12:01:02;13.03;;;5.80;;
17384;SDS011;8810;48.680;8.894;2022-12-16T12:03:53;14.43;;;5.93;;
17384;SDS011;8810;48.680;8.894;2022-12-16T12:06:44;18.50;;;6.47;;
17384;SDS011;8810;48.680;8.894;2022-12-16T12:09:40;28.13;;;7.10;;
17384;SDS011;8810;48.680;8.894;2022-12-16T12:12:29;19.40;;;5.87;;
17384;SDS011;8810;48.680;8.894;2022-12-16T12:15:23;15.17;;;5.97;;
17384;SDS011;8810;48.680;8.894;2022-12-16T12:18:17;13.90;;;6.43;;
17384;SDS011;8810;48.680;8.894;2022-12-16T12:21:20;13.70;;;5.37;;
17384;SDS011;8810;48.680;8.894;2022-12-16T12:24:11;24.73;;;8.33;;
17384;SDS011;8810;48.680;8.894;2022-12-16T12:27:05;15.07;;;5.73;;
17384;SDS011;8810;48.680;8.894;2022-12-16T12:29:56;14.20;;;4.93;;
17384;SDS011;8810;48.680;8.894;2022-12-16T12:32:49;14.33;;;5.47;;
17384;SDS011;8810;48.680;8.894;2022-12-16T12:35:45;14.17;;;5.23;;
17384;SDS011;8810;48.680;8.894;2022-12-16T12:38:39;21.17;;;7.03;;
17384;SDS011;8810;48.680;8.894;2022-12-16T12:41:38;18.17;;;5.93;;
17384;SDS011;8810;48.680;8.894;2022-12-16T12:44:34;16.53;;;6.20;;
17384;SDS011;8810;48.680;8.894;2022-12-16T12:47:28;13.73;;;5.00;;
17384;SDS011;8810;48.680;8.894;2022-12-16T12:50:16;13.37;;;5.70;;
17384;SDS011;8810;48.680;8.894;2022-12-16T12:53:11;11.83;;;5.90;;
17384;SDS011;8810;48.680;8.894;2022-12-16T12:56:06;13.87;;;5.97;;
17384;SDS011;8810;48.680;8.894;2022-12-16T12:59:00;11.13;;;5.30;;
17384;SDS011;8810;48.680;8.894;2022-12-16T13:01:47;13.47;;;6.57;;
17384;SDS011;8810;48.680;8.894;2022-12-16T13:04:34;9.73;;;5.10;;
17384;SDS011;8810;48.680;8.894;2022-12-16T13:07:19;10.93;;;5.10;;
17384;SDS011;8810;48.680;8.894;2022-12-16T13:10:16;12.10;;;5.30;;
17384;SDS011;8810;48.680;8.894;2022-12-16T13:19:56;11.73;;;5.13;;
17384;SDS011;8810;48.680;8.894;2022-12-16T13:22:42;10.13;;;5.40;;
17384;SDS011;8810;48.680;8.894;2022-12-16T13:25:38;12.53;;;5.40;;
17384;SDS011;8810;48.680;8.894;2022-12-16T13:28:30;12.47;;;5.83;;
17384;SDS011;8810;48.680;8.894;2022-12-16T13:31:16;12.30;;;5.83;;
17384;SDS011;8810;48.680;8.894;2022-12-16T13:34:02;11.93;;;5.53;;
17384;SDS011;8810;48.680;8.894;2022-12-16T13:36:55;10.83;;;5.47;;
17384;SDS011;8810;48.680;8.894;2022-12-16T13:39:41;12.57;;;5.43;;
17384;SDS011;8810;48.680;8.894;2022-12-16T13:42:34;15.43;;;5.37;;
17384;SDS011;8810;48.680;8.894;2022-12-16T13:45:34;21.00;;;7.30;;
17384;SDS011;8810;48.680;8.894;2022-12-16T13:48:33;16.43;;;5.77;;
17384;SDS011;8810;48.680;8.894;2022-12-16T13:58:01;12.87;;;5.93;;
17384;SDS011;8810;48.680;8.894;2022-12-16T14:00:55;15.67;;;5.83;;
17384;SDS011;8810;48.680;8.894;2022-12-16T14:03:44;13.07;;;6.13;;
17384;SDS011;8810;48.680;8.894;2022-12-16T14:06:30;12.27;;;6.00;;
17384;SDS011;8810;48.680;8.894;2022-12-16T14:09:27;13.00;;;6.67;;
17384;SDS011;8810;48.680;8.894;2022-12-16T14:15:26;11.43;;;5.60;;
17384;SDS011;8810;48.680;8.894;2022-12-16T14:18:19;11.17;;;5.33;;
17384;SDS011;8810;48.680;8.894;2022-12-16T14:21:15;15.43;;;6.10;;
17384;SDS011;8810;48.680;8.894;2022-12-16T14:24:03;23.80;;;7.00;;
17384;SDS011;8810;48.680;8.894;2022-12-16T14:26:53;14.30;;;6.30;;
17384;SDS011;8810;48.680;8.894;2022-12-16T14:29:41;14.60;;;6.00;;
17384;SDS011;8810;48.680;8.894;2022-12-16T14:32:27;16.97;;;6.40;;
17384;SDS011;8810;48.680;8.894;2022-12-16T14:35:13;13.70;;;6.57;;
17384;SDS011;8810;48.680;8.894;2022-12-16T14:38:11;20.17;;;7.50;;
17384;SDS011;8810;48.680;8.894;2022-12-16T14:41:04;13.47;;;5.77;;
17384;SDS011;8810;48.680;8.894;2022-12-16T14:43:48;23.70;;;8.30;;
17384;SDS011;8810;48.680;8.894;2022-12-16T14:46:34;20.93;;;6.33;;
17384;SDS011;8810;48.680;8.894;2022-12-16T14:49:20;16.73;;;6.73;;
17384;SDS011;8810;48.680;8.894;2022-12-16T14:52:15;12.70;;;6.20;;
17384;SDS011;8810;48.680;8.894;2022-12-16T14:55:09;14.60;;;6.80;;
17384;SDS011;8810;48.680;8.894;2022-12-16T14:58:02;11.20;;;5.60;;
17384;SDS011;8810;48.680;8.894;2022-12-16T15:00:48;13.63;;;5.67;;
17384;SDS011;8810;48.680;8.894;2022-12-16T15:03:35;13.17;;;6.43;;
17384;SDS011;8810;48.680;8.894;2022-12-16T15:06:23;14.93;;;6.90;;
17384;SDS011;8810;48.680;8.894;2022-12-16T15:09:12;15.43;;;6.30;;
17384;SDS011;8810;48.680;8.894;2022-12-16T15:12:04;13.90;;;6.63;;
17384;SDS011;8810;48.680;8.894;2022-12-16T15:14:50;11.97;;;6.00;;
17384;SDS011;8810;48.680;8.894;2022-12-16T15:17:40;13.43;;;6.50;;
17384;SDS011;8810;48.680;8.894;2022-12-16T15:20:26;13.13;;;6.20;;
17384;SDS011;8810;48.680;8.894;2022-12-16T15:23:14;13.77;;;6.13;;
17384;SDS011;8810;48.680;8.894;2022-12-16T15:26:04;13.03;;;5.53;;
17384;SDS011;8810;48.680;8.894;2022-12-16T15:28:49;10.53;;;5.67;;
17384;SDS011;8810;48.680;8.894;2022-12-16T15:31:34;12.90;;;6.33;;
17384;SDS011;8810;48.680;8.894;2022-12-16T15:34:24;10.93;;;5.50;;
17384;SDS011;8810;48.680;8.894;2022-12-16T15:37:19;10.93;;;5.23;;
17384;SDS011;8810;48.680;8.894;2022-12-16T15:40:17;11.00;;;5.80;;
17384;SDS011;8810;48.680;8.894;2022-12-16T15:43:03;14.23;;;5.90;;
17384;SDS011;8810;48.680;8.894;2022-12-16T15:45:48;14.30;;;6.53;;
17384;SDS011;8810;48.680;8.894;2022-12-16T15:48:33;15.60;;;7.03;;
17384;SDS011;8810;48.680;8.894;2022-12-16T15:51:20;14.03;;;5.93;;
17384;SDS011;8810;48.680;8.894;2022-12-16T15:54:12;13.10;;;5.87;;
17384;SDS011;8810;48.680;8.894;2022-12-16T15:56:59;15.40;;;6.93;;
17384;SDS011;8810;48.680;8.894;2022-12-16T15:59:51;13.67;;;6.27;;
17384;SDS011;8810;48.680;8.894;2022-12-16T16:02:43;15.20;;;7.03;;
17384;SDS011;8810;48.680;8.894;2022-12-16T16:05:29;15.40;;;7.10;;
17384;SDS011;8810;48.680;8.894;2022-12-16T16:08:14;17.37;;;6.90;;
17384;SDS011;8810;48.680;8.894;2022-12-16T16:10:59;22.43;;;9.30;;
17384;SDS011;8810;48.680;8.894;2022-12-16T16:13:47;16.63;;;8.20;;
17384;SDS011;8810;48.680;8.894;2022-12-16T16:16:31;16.77;;;8.77;;
17384;SDS011;8810;48.680;8.894;2022-12-16T16:19:17;13.37;;;6.57;;
17384;SDS011;8810;48.680;8.894;2022-12-16T16:22:06;13.40;;;6.23;;
17384;SDS011;8810;48.680;8.894;2022-12-16T16:24:56;11.40;;;5.70;;
17384;SDS011;8810;48.680;8.894;2022-12-16T16:27:42;13.70;;;6.50;;
17384;SDS011;8810;48.680;8.894;2022-12-16T16:30:26;16.93;;;6.97;;
17384;SDS011;8810;48.680;8.894;2022-12-16T16:33:10;14.77;;;7.03;;
17384;SDS011;8810;48.680;8.894;2022-12-16T16:35:55;15.97;;;6.63;;